sensor_id;sensor_type;location;lat;lon;timestamp;temperature;humidity
43679;DHT22;29279;50.858;4.392;2023-02-08T00:01:16;4.20;99.90
43679;DHT22;29279;50.858;4.392;2023-02-08T00:03:43;4.10;99.90
43679;DHT22;29279;50.858;4.392;2023-02-08T00:06:09;4.10;99.90
43679;DHT22;29279;50.858;4.392;2023-02-08T00:08:36;4.10;99.90
43679;DHT22;29279;50.858;4.392;2023-02-08T00:11:03;4.10;99.90
43679;DHT22;29279;50.858;4.392;2023-02-08T00:13:30;4.30;99.90
43679;DHT22;29279;50.858;4.392;2023-02-08T00:15:56;4.30;99.90
43679;DHT22;29279;50.858;4.392;2023-02-08T00:18:22;4.20;99.90
43679;DHT22;29279;50.858;4.392;2023-02-08T00:20:48;4.10;99.90
43679;DHT22;29279;50.858;4.392;2023-02-08T00:23:14;4.00;99.90
43679;DHT22;29279;50.858;4.392;2023-02-08T00:25:40;4.00;99.90
43679;DHT22;29279;50.858;4.392;2023-02-08T00:28:08;4.00;99.90
43679;DHT22;29279;50.858;4.392;2023-02-08T00:30:37;4.00;99.90
43679;DHT22;29279;50.858;4.392;2023-02-08T00:33:03;4.00;99.90
43679;DHT22;29279;50.858;4.392;2023-02-08T00:35:29;4.10;99.90
43679;DHT22;29279;50.858;4.392;2023-02-08T00:37:55;4.10;99.90
43679;DHT22;29279;50.858;4.392;2023-02-08T00:40:21;4.00;99.90
43679;DHT22;29279;50.858;4.392;2023-02-08T00:42:47;4.00;99.90
43679;DHT22;29279;50.858;4.392;2023-02-08T00:45:12;4.10;99.90
43679;DHT22;29279;50.858;4.392;2023-02-08T00:47:38;4.10;99.90
43679;DHT22;29279;50.858;4.392;2023-02-08T00:50:04;4.10;99.90
43679;DHT22;29279;50.858;4.392;2023-02-08T00:52:30;4.10;99.90
43679;DHT22;29279;50.858;4.392;2023-02-08T00:54:56;4.10;99.90
43679;DHT22;29279;50.858;4.392;2023-02-08T00:57:21;4.10;99.90
43679;DHT22;29279;50.858;4.392;2023-02-08T00:59:47;4.00;99.90
43679;DHT22;29279;50.858;4.392;2023-02-08T01:02:13;4.00;99.90
43679;DHT22;29279;50.858;4.392;2023-02-08T01:04:38;4.00;99.90
43679;DHT22;29279;50.858;4.392;2023-02-08T01:07:05;4.00;99.90
43679;DHT22;29279;50.858;4.392;2023-02-08T01:09:31;4.00;99.90
43679;DHT22;29279;50.858;4.392;2023-02-08T01:11:57;4.00;99.90
43679;DHT22;29279;50.858;4.392;2023-02-08T01:14:23;4.00;99.90
43679;DHT22;29279;50.858;4.392;2023-02-08T01:16:49;4.00;99.90
43679;DHT22;29279;50.858;4.392;2023-02-08T01:19:15;4.00;99.90
43679;DHT22;29279;50.858;4.392;2023-02-08T01:21:41;4.00;99.90
43679;DHT22;29279;50.858;4.392;2023-02-08T01:24:08;3.90;99.90
43679;DHT22;29279;50.858;4.392;2023-02-08T01:26:35;3.90;99.90
43679;DHT22;29279;50.858;4.392;2023-02-08T01:29:01;3.90;99.90
43679;DHT22;29279;50.858;4.392;2023-02-08T01:31:29;3.90;99.90
43679;DHT22;29279;50.858;4.392;2023-02-08T01:33:57;4.00;99.90
43679;DHT22;29279;50.858;4.392;2023-02-08T01:36:23;3.90;99.90
43679;DHT22;29279;50.858;4.392;2023-02-08T01:38:49;4.00;99.90
43679;DHT22;29279;50.858;4.392;2023-02-08T01:41:29;3.90;99.90
43679;DHT22;29279;50.858;4.392;2023-02-08T01:46:43;3.90;99.90
43679;DHT22;29279;50.858;4.392;2023-02-08T01:49:17;3.90;99.90
43679;DHT22;29279;50.858;4.392;2023-02-08T01:51:51;3.80;99.90
43679;DHT22;29279;50.858;4.392;2023-02-08T01:54:19;3.80;99.90
43679;DHT22;29279;50.858;4.392;2023-02-08T01:56:47;3.80;99.90
43679;DHT22;29279;50.858;4.392;2023-02-08T02:00:06;3.80;99.90
43679;DHT22;29279;50.858;4.392;2023-02-08T02:02:08;3.90;99.90
43679;DHT22;29279;50.858;4.392;2023-02-08T02:04:34;3.90;99.90
43679;DHT22;29279;50.858;4.392;2023-02-08T02:07:00;3.90;99.90
43679;DHT22;29279;50.858;4.392;2023-02-08T02:09:47;3.80;99.90
43679;DHT22;29279;50.858;4.392;2023-02-08T02:12:15;3.80;99.90
43679;DHT22;29279;50.858;4.392;2023-02-08T02:14:42;3.80;99.90
43679;DHT22;29279;50.858;4.392;2023-02-08T02:17:12;3.80;99.90
43679;DHT22;29279;50.858;4.392;2023-02-08T02:20:08;3.80;99.90
43679;DHT22;29279;50.858;4.392;2023-02-08T02:33:44;3.60;99.90
43679;DHT22;29279;50.858;4.392;2023-02-08T02:41:55;3.50;99.90
43679;DHT22;29279;50.858;4.392;2023-02-08T02:50:09;3.20;99.90
43679;DHT22;29279;50.858;4.392;2023-02-08T02:52:59;3.10;99.90
43679;DHT22;29279;50.858;4.392;2023-02-08T02:55:28;3.20;99.90
43679;DHT22;29279;50.858;4.392;2023-02-08T02:57:56;3.30;99.90
43679;DHT22;29279;50.858;4.392;2023-02-08T03:00:25;3.40;99.90
43679;DHT22;29279;50.858;4.392;2023-02-08T03:02:52;3.40;99.90
43679;DHT22;29279;50.858;4.392;2023-02-08T03:05:18;3.50;99.90
43679;DHT22;29279;50.858;4.392;2023-02-08T03:07:48;3.50;99.90
43679;DHT22;29279;50.858;4.392;2023-02-08T03:10:31;3.60;99.90
43679;DHT22;29279;50.858;4.392;2023-02-08T03:13:12;3.60;99.90
43679;DHT22;29279;50.858;4.392;2023-02-08T03:18:38;3.70;99.90
43679;DHT22;29279;50.858;4.392;2023-02-08T03:21:19;3.70;99.90
43679;DHT22;29279;50.858;4.392;2023-02-08T03:35:08;3.70;99.90
43679;DHT22;29279;50.858;4.392;2023-02-08T03:38:10;3.70;99.90
43679;DHT22;29279;50.858;4.392;2023-02-08T03:40:38;3.70;99.90
43679;DHT22;29279;50.858;4.392;2023-02-08T03:46:15;3.80;99.90
43679;DHT22;29279;50.858;4.392;2023-02-08T03:48:46;3.80;99.90
43679;DHT22;29279;50.858;4.392;2023-02-08T03:51:14;3.80;99.90
43679;DHT22;29279;50.858;4.392;2023-02-08T03:53:43;3.80;99.90
43679;DHT22;29279;50.858;4.392;2023-02-08T03:56:14;3.70;99.90
43679;DHT22;29279;50.858;4.392;2023-02-08T03:59:09;3.70;99.90
43679;DHT22;29279;50.858;4.392;2023-02-08T04:01:40;3.60;99.90
43679;DHT22;29279;50.858;4.392;2023-02-08T04:04:07;3.60;99.90
43679;DHT22;29279;50.858;4.392;2023-02-08T04:06:34;3.60;99.90
43679;DHT22;29279;50.858;4.392;2023-02-08T04:09:00;3.50;99.90
43679;DHT22;29279;50.858;4.392;2023-02-08T04:11:25;3.60;99.90
43679;DHT22;29279;50.858;4.392;2023-02-08T04:13:51;3.60;99.90
43679;DHT22;29279;50.858;4.392;2023-02-08T04:16:16;3.30;99.90
43679;DHT22;29279;50.858;4.392;2023-02-08T04:18:42;3.10;99.90
43679;DHT22;29279;50.858;4.392;2023-02-08T04:21:08;3.10;99.90
43679;DHT22;29279;50.858;4.392;2023-02-08T04:23:33;3.10;99.90
43679;DHT22;29279;50.858;4.392;2023-02-08T04:25:59;3.10;99.90
43679;DHT22;29279;50.858;4.392;2023-02-08T04:28:24;3.20;99.90
43679;DHT22;29279;50.858;4.392;2023-02-08T04:30:50;3.10;99.90
43679;DHT22;29279;50.858;4.392;2023-02-08T04:33:19;3.10;99.90
43679;DHT22;29279;50.858;4.392;2023-02-08T04:35:44;3.30;99.90
43679;DHT22;29279;50.858;4.392;2023-02-08T04:38:10;3.20;99.90
43679;DHT22;29279;50.858;4.392;2023-02-08T04:40:35;3.20;99.90
43679;DHT22;29279;50.858;4.392;2023-02-08T04:43:01;3.00;99.90
43679;DHT22;29279;50.858;4.392;2023-02-08T04:45:27;2.90;99.90
43679;DHT22;29279;50.858;4.392;2023-02-08T04:47:54;2.90;99.90
43679;DHT22;29279;50.858;4.392;2023-02-08T04:50:20;3.10;99.90
43679;DHT22;29279;50.858;4.392;2023-02-08T04:52:45;3.00;99.90
43679;DHT22;29279;50.858;4.392;2023-02-08T04:55:11;2.90;99.90
43679;DHT22;29279;50.858;4.392;2023-02-08T04:57:37;2.90;99.90
43679;DHT22;29279;50.858;4.392;2023-02-08T05:00:03;2.90;99.90
43679;DHT22;29279;50.858;4.392;2023-02-08T05:02:29;2.90;99.90
43679;DHT22;29279;50.858;4.392;2023-02-08T05:04:54;2.90;99.90
43679;DHT22;29279;50.858;4.392;2023-02-08T05:07:20;2.90;99.90
43679;DHT22;29279;50.858;4.392;2023-02-08T05:09:46;2.90;99.90
43679;DHT22;29279;50.858;4.392;2023-02-08T05:12:11;2.80;99.90
43679;DHT22;29279;50.858;4.392;2023-02-08T05:14:37;2.80;99.90
43679;DHT22;29279;50.858;4.392;2023-02-08T05:17:03;2.90;99.90
43679;DHT22;29279;50.858;4.392;2023-02-08T05:19:28;3.00;99.90
43679;DHT22;29279;50.858;4.392;2023-02-08T05:21:54;3.00;99.90
43679;DHT22;29279;50.858;4.392;2023-02-08T05:24:20;3.10;99.90
43679;DHT22;29279;50.858;4.392;2023-02-08T05:26:45;3.10;99.90
43679;DHT22;29279;50.858;4.392;2023-02-08T05:29:11;3.20;99.90
43679;DHT22;29279;50.858;4.392;2023-02-08T05:31:40;3.20;99.90
43679;DHT22;29279;50.858;4.392;2023-02-08T05:34:05;3.30;99.90
43679;DHT22;29279;50.858;4.392;2023-02-08T05:36:31;3.30;99.90
43679;DHT22;29279;50.858;4.392;2023-02-08T05:38:57;3.30;99.90
43679;DHT22;29279;50.858;4.392;2023-02-08T05:41:22;3.40;99.90
43679;DHT22;29279;50.858;4.392;2023-02-08T05:43:48;3.40;99.90
43679;DHT22;29279;50.858;4.392;2023-02-08T05:46:14;3.50;99.90
43679;DHT22;29279;50.858;4.392;2023-02-08T05:48:40;3.50;99.90
43679;DHT22;29279;50.858;4.392;2023-02-08T05:51:06;3.50;99.90
43679;DHT22;29279;50.858;4.392;2023-02-08T05:53:31;3.60;99.90
43679;DHT22;29279;50.858;4.392;2023-02-08T05:55:57;3.60;99.90
43679;DHT22;29279;50.858;4.392;2023-02-08T05:58:23;3.60;99.90
43679;DHT22;29279;50.858;4.392;2023-02-08T06:00:49;3.60;99.90
43679;DHT22;29279;50.858;4.392;2023-02-08T06:03:15;3.50;99.90
43679;DHT22;29279;50.858;4.392;2023-02-08T06:05:41;3.60;99.90
43679;DHT22;29279;50.858;4.392;2023-02-08T06:08:08;3.60;99.90
43679;DHT22;29279;50.858;4.392;2023-02-08T06:10:34;3.50;99.90
43679;DHT22;29279;50.858;4.392;2023-02-08T06:13:00;3.30;99.90
43679;DHT22;29279;50.858;4.392;2023-02-08T06:15:26;3.30;99.90
43679;DHT22;29279;50.858;4.392;2023-02-08T06:17:52;3.30;99.90
43679;DHT22;29279;50.858;4.392;2023-02-08T06:20:18;3.30;99.90
43679;DHT22;29279;50.858;4.392;2023-02-08T06:22:44;3.40;99.90
43679;DHT22;29279;50.858;4.392;2023-02-08T06:25:10;3.40;99.90
43679;DHT22;29279;50.858;4.392;2023-02-08T06:27:35;3.40;99.90
43679;DHT22;29279;50.858;4.392;2023-02-08T06:30:01;3.30;99.90
43679;DHT22;29279;50.858;4.392;2023-02-08T06:32:27;3.20;99.90
43679;DHT22;29279;50.858;4.392;2023-02-08T06:34:53;3.20;99.90
43679;DHT22;29279;50.858;4.392;2023-02-08T06:37:18;3.20;99.90
43679;DHT22;29279;50.858;4.392;2023-02-08T06:39:44;3.20;99.90
43679;DHT22;29279;50.858;4.392;2023-02-08T06:42:10;3.10;99.90
43679;DHT22;29279;50.858;4.392;2023-02-08T06:44:36;3.10;99.90
43679;DHT22;29279;50.858;4.392;2023-02-08T06:47:02;3.00;99.90
43679;DHT22;29279;50.858;4.392;2023-02-08T06:49:28;3.00;99.90
43679;DHT22;29279;50.858;4.392;2023-02-08T06:51:54;2.90;99.90
43679;DHT22;29279;50.858;4.392;2023-02-08T06:54:19;2.90;99.90
43679;DHT22;29279;50.858;4.392;2023-02-08T06:56:45;2.90;99.90
43679;DHT22;29279;50.858;4.392;2023-02-08T06:59:11;2.90;99.90
43679;DHT22;29279;50.858;4.392;2023-02-08T07:01:37;3.00;99.90
43679;DHT22;29279;50.858;4.392;2023-02-08T07:04:02;2.90;99.90
43679;DHT22;29279;50.858;4.392;2023-02-08T07:06:31;2.80;99.90
43679;DHT22;29279;50.858;4.392;2023-02-08T07:08:57;2.80;99.90
43679;DHT22;29279;50.858;4.392;2023-02-08T07:11:23;2.60;99.90
43679;DHT22;29279;50.858;4.392;2023-02-08T07:13:49;2.50;99.90
43679;DHT22;29279;50.858;4.392;2023-02-08T07:16:17;2.40;99.90
43679;DHT22;29279;50.858;4.392;2023-02-08T07:18:43;2.40;99.90
43679;DHT22;29279;50.858;4.392;2023-02-08T07:21:09;2.30;99.90
43679;DHT22;29279;50.858;4.392;2023-02-08T07:23:37;2.30;99.90
43679;DHT22;29279;50.858;4.392;2023-02-08T07:26:10;2.20;99.90
43679;DHT22;29279;50.858;4.392;2023-02-08T07:28:37;2.20;99.90
43679;DHT22;29279;50.858;4.392;2023-02-08T07:31:11;2.20;99.90
43679;DHT22;29279;50.858;4.392;2023-02-08T07:33:37;2.10;99.90
43679;DHT22;29279;50.858;4.392;2023-02-08T07:36:04;2.20;99.90
43679;DHT22;29279;50.858;4.392;2023-02-08T07:38:31;2.20;99.90
43679;DHT22;29279;50.858;4.392;2023-02-08T07:41:03;2.20;99.90
43679;DHT22;29279;50.858;4.392;2023-02-08T07:43:29;2.20;99.90
43679;DHT22;29279;50.858;4.392;2023-02-08T07:45:55;2.30;99.90
43679;DHT22;29279;50.858;4.392;2023-02-08T07:48:20;2.40;99.90
43679;DHT22;29279;50.858;4.392;2023-02-08T07:50:46;2.70;99.90
43679;DHT22;29279;50.858;4.392;2023-02-08T07:53:12;3.20;99.90
43679;DHT22;29279;50.858;4.392;2023-02-08T07:55:37;3.80;99.90
43679;DHT22;29279;50.858;4.392;2023-02-08T07:58:03;4.00;99.40
43679;DHT22;29279;50.858;4.392;2023-02-08T08:00:29;4.40;99.00
43679;DHT22;29279;50.858;4.392;2023-02-08T08:02:54;4.90;98.10
43679;DHT22;29279;50.858;4.392;2023-02-08T08:05:20;5.10;97.30
43679;DHT22;29279;50.858;4.392;2023-02-08T08:07:46;5.40;96.40
43679;DHT22;29279;50.858;4.392;2023-02-08T08:10:11;5.60;95.80
43679;DHT22;29279;50.858;4.392;2023-02-08T08:12:37;5.90;95.50
43679;DHT22;29279;50.858;4.392;2023-02-08T08:15:03;6.10;94.40
43679;DHT22;29279;50.858;4.392;2023-02-08T08:17:29;6.30;93.60
43679;DHT22;29279;50.858;4.392;2023-02-08T08:19:54;6.40;93.20
43679;DHT22;29279;50.858;4.392;2023-02-08T08:22:20;6.50;92.30
43679;DHT22;29279;50.858;4.392;2023-02-08T08:24:46;6.60;92.30
43679;DHT22;29279;50.858;4.392;2023-02-08T08:27:11;6.80;91.90
43679;DHT22;29279;50.858;4.392;2023-02-08T08:29:37;7.10;91.50
43679;DHT22;29279;50.858;4.392;2023-02-08T08:32:03;7.30;90.70
43679;DHT22;29279;50.858;4.392;2023-02-08T08:34:30;7.40;90.50
43679;DHT22;29279;50.858;4.392;2023-02-08T08:36:56;7.50;90.00
43679;DHT22;29279;50.858;4.392;2023-02-08T08:39:23;7.90;89.30
43679;DHT22;29279;50.858;4.392;2023-02-08T08:41:49;8.40;86.50
43679;DHT22;29279;50.858;4.392;2023-02-08T08:44:15;8.20;86.00
43679;DHT22;29279;50.858;4.392;2023-02-08T08:46:40;8.40;86.00
43679;DHT22;29279;50.858;4.392;2023-02-08T08:49:06;8.50;85.90
43679;DHT22;29279;50.858;4.392;2023-02-08T08:51:32;8.40;85.40
43679;DHT22;29279;50.858;4.392;2023-02-08T08:54:06;8.20;85.30
43679;DHT22;29279;50.858;4.392;2023-02-08T08:56:32;8.30;83.80
43679;DHT22;29279;50.858;4.392;2023-02-08T08:58:58;8.70;84.10
43679;DHT22;29279;50.858;4.392;2023-02-08T09:01:24;9.30;82.00
43679;DHT22;29279;50.858;4.392;2023-02-08T09:03:50;9.80;79.30
43679;DHT22;29279;50.858;4.392;2023-02-08T09:06:16;10.30;78.70
43679;DHT22;29279;50.858;4.392;2023-02-08T09:08:42;10.90;77.20
43679;DHT22;29279;50.858;4.392;2023-02-08T09:11:11;11.50;76.50
43679;DHT22;29279;50.858;4.392;2023-02-08T09:13:37;12.30;75.60
43679;DHT22;29279;50.858;4.392;2023-02-08T09:16:08;13.30;71.70
43679;DHT22;29279;50.858;4.392;2023-02-08T09:18:34;13.70;68.50
43679;DHT22;29279;50.858;4.392;2023-02-08T09:21:07;13.40;66.20
43679;DHT22;29279;50.858;4.392;2023-02-08T09:23:34;13.30;65.50
43679;DHT22;29279;50.858;4.392;2023-02-08T09:26:04;13.20;65.10
43679;DHT22;29279;50.858;4.392;2023-02-08T09:28:30;12.20;65.90
43679;DHT22;29279;50.858;4.392;2023-02-08T09:30:56;12.50;66.00
43679;DHT22;29279;50.858;4.392;2023-02-08T09:33:23;12.70;65.20
43679;DHT22;29279;50.858;4.392;2023-02-08T09:35:49;12.70;65.10
43679;DHT22;29279;50.858;4.392;2023-02-08T09:38:14;12.10;64.00
43679;DHT22;29279;50.858;4.392;2023-02-08T09:40:53;11.20;64.50
43679;DHT22;29279;50.858;4.392;2023-02-08T09:43:44;10.90;65.40
43679;DHT22;29279;50.858;4.392;2023-02-08T09:46:20;11.00;65.30
43679;DHT22;29279;50.858;4.392;2023-02-08T09:48:50;10.90;64.90
43679;DHT22;29279;50.858;4.392;2023-02-08T09:51:37;11.50;64.70
43679;DHT22;29279;50.858;4.392;2023-02-08T09:56:46;11.50;62.90
43679;DHT22;29279;50.858;4.392;2023-02-08T09:59:22;11.80;62.60
43679;DHT22;29279;50.858;4.392;2023-02-08T10:01:50;11.80;62.80
43679;DHT22;29279;50.858;4.392;2023-02-08T10:04:27;11.70;62.10
43679;DHT22;29279;50.858;4.392;2023-02-08T10:06:55;12.00;61.90
43679;DHT22;29279;50.858;4.392;2023-02-08T10:09:24;12.50;60.70
43679;DHT22;29279;50.858;4.392;2023-02-08T10:12:11;13.10;59.00
43679;DHT22;29279;50.858;4.392;2023-02-08T10:14:47;13.30;57.70
43679;DHT22;29279;50.858;4.392;2023-02-08T10:26:12;16.10;56.00
43679;DHT22;29279;50.858;4.392;2023-02-08T10:34:07;18.80;52.20
43679;DHT22;29279;50.858;4.392;2023-02-08T10:36:38;19.70;51.80
43679;DHT22;29279;50.858;4.392;2023-02-08T10:39:17;20.30;47.40
43679;DHT22;29279;50.858;4.392;2023-02-08T10:41:44;19.40;45.60
43679;DHT22;29279;50.858;4.392;2023-02-08T10:44:46;18.70;46.70
43679;DHT22;29279;50.858;4.392;2023-02-08T10:47:35;18.40;44.00
43679;DHT22;29279;50.858;4.392;2023-02-08T10:52:51;16.70;44.00
43679;DHT22;29279;50.858;4.392;2023-02-08T10:55:19;17.10;43.90
43679;DHT22;29279;50.858;4.392;2023-02-08T10:57:46;16.70;44.00
43679;DHT22;29279;50.858;4.392;2023-02-08T11:00:20;16.70;47.70
43679;DHT22;29279;50.858;4.392;2023-02-08T11:02:50;17.30;52.60
43679;DHT22;29279;50.858;4.392;2023-02-08T11:05:30;18.40;45.00
43679;DHT22;29279;50.858;4.392;2023-02-08T11:08:17;18.90;44.00
43679;DHT22;29279;50.858;4.392;2023-02-08T11:11:07;20.30;49.30
43679;DHT22;29279;50.858;4.392;2023-02-08T11:13:42;20.60;44.20
43679;DHT22;29279;50.858;4.392;2023-02-08T11:16:22;20.90;40.70
43679;DHT22;29279;50.858;4.392;2023-02-08T11:21:40;20.40;39.70
43679;DHT22;29279;50.858;4.392;2023-02-08T11:26:48;20.40;37.90
43679;DHT22;29279;50.858;4.392;2023-02-08T11:29:19;19.70;36.90
43679;DHT22;29279;50.858;4.392;2023-02-08T11:36:50;20.80;37.40
43679;DHT22;29279;50.858;4.392;2023-02-08T11:42:01;21.20;39.40
43679;DHT22;29279;50.858;4.392;2023-02-08T11:44:31;21.20;40.20
43679;DHT22;29279;50.858;4.392;2023-02-08T11:47:03;21.70;39.40
43679;DHT22;29279;50.858;4.392;2023-02-08T11:49:36;22.60;40.90
43679;DHT22;29279;50.858;4.392;2023-02-08T11:52:04;23.50;38.30
43679;DHT22;29279;50.858;4.392;2023-02-08T11:54:36;23.40;39.80
43679;DHT22;29279;50.858;4.392;2023-02-08T11:57:22;23.70;37.90
43679;DHT22;29279;50.858;4.392;2023-02-08T11:59:51;23.80;38.50
43679;DHT22;29279;50.858;4.392;2023-02-08T12:02:38;24.20;38.20
43679;DHT22;29279;50.858;4.392;2023-02-08T12:05:10;24.30;37.80
43679;DHT22;29279;50.858;4.392;2023-02-08T12:21:24;24.90;37.00
43679;DHT22;29279;50.858;4.392;2023-02-08T12:23:54;24.40;38.10
43679;DHT22;29279;50.858;4.392;2023-02-08T12:32:22;24.50;37.00
43679;DHT22;29279;50.858;4.392;2023-02-08T12:34:59;25.00;37.70
43679;DHT22;29279;50.858;4.392;2023-02-08T12:37:39;24.90;36.60
43679;DHT22;29279;50.858;4.392;2023-02-08T12:51:38;21.80;36.60
43679;DHT22;29279;50.858;4.392;2023-02-08T12:54:14;21.60;37.00
43679;DHT22;29279;50.858;4.392;2023-02-08T12:56:44;22.00;37.10
43679;DHT22;29279;50.858;4.392;2023-02-08T12:59:31;22.20;37.20
43679;DHT22;29279;50.858;4.392;2023-02-08T13:02:01;22.40;37.40
43679;DHT22;29279;50.858;4.392;2023-02-08T13:04:36;22.40;36.40
43679;DHT22;29279;50.858;4.392;2023-02-08T13:07:18;21.90;36.10
43679;DHT22;29279;50.858;4.392;2023-02-08T13:12:35;22.60;37.00
43679;DHT22;29279;50.858;4.392;2023-02-08T13:17:48;20.40;37.70
43679;DHT22;29279;50.858;4.392;2023-02-08T13:20:21;20.80;38.50
43679;DHT22;29279;50.858;4.392;2023-02-08T13:22:48;19.70;38.10
43679;DHT22;29279;50.858;4.392;2023-02-08T13:25:22;19.20;38.90
43679;DHT22;29279;50.858;4.392;2023-02-08T13:27:50;18.60;39.20
43679;DHT22;29279;50.858;4.392;2023-02-08T13:30:21;17.40;40.60
43679;DHT22;29279;50.858;4.392;2023-02-08T13:32:48;17.50;42.00
43679;DHT22;29279;50.858;4.392;2023-02-08T13:35:27;18.90;40.20
43679;DHT22;29279;50.858;4.392;2023-02-08T13:40:25;18.60;39.20
43679;DHT22;29279;50.858;4.392;2023-02-08T13:43:03;18.10;39.90
43679;DHT22;29279;50.858;4.392;2023-02-08T13:45:36;18.10;39.90
43679;DHT22;29279;50.858;4.392;2023-02-08T13:48:08;17.90;40.40
43679;DHT22;29279;50.858;4.392;2023-02-08T13:50:52;18.20;41.60
43679;DHT22;29279;50.858;4.392;2023-02-08T13:56:04;18.20;41.70
43679;DHT22;29279;50.858;4.392;2023-02-08T14:01:24;19.30;41.20
43679;DHT22;29279;50.858;4.392;2023-02-08T14:06:35;19.60;41.30
43679;DHT22;29279;50.858;4.392;2023-02-08T14:17:51;18.90;41.50
43679;DHT22;29279;50.858;4.392;2023-02-08T14:22:54;17.40;43.00
43679;DHT22;29279;50.858;4.392;2023-02-08T14:25:25;17.90;42.80
43679;DHT22;29279;50.858;4.392;2023-02-08T14:28:00;18.60;42.00
43679;DHT22;29279;50.858;4.392;2023-02-08T14:30:34;18.60;43.20
43679;DHT22;29279;50.858;4.392;2023-02-08T14:35:32;19.50;43.20
43679;DHT22;29279;50.858;4.392;2023-02-08T14:40:57;19.80;43.40
43679;DHT22;29279;50.858;4.392;2023-02-08T14:43:27;19.90;43.20
43679;DHT22;29279;50.858;4.392;2023-02-08T14:45:54;20.30;43.20
43679;DHT22;29279;50.858;4.392;2023-02-08T14:53:49;20.20;42.90
43679;DHT22;29279;50.858;4.392;2023-02-08T14:56:23;20.30;43.30
43679;DHT22;29279;50.858;4.392;2023-02-08T14:58:55;20.30;45.80
43679;DHT22;29279;50.858;4.392;2023-02-08T15:04:01;20.10;43.50
43679;DHT22;29279;50.858;4.392;2023-02-08T15:09:22;19.30;44.50
43679;DHT22;29279;50.858;4.392;2023-02-08T15:12:01;18.50;44.70
43679;DHT22;29279;50.858;4.392;2023-02-08T15:14:29;17.00;44.80
43679;DHT22;29279;50.858;4.392;2023-02-08T15:16:56;15.80;46.50
43679;DHT22;29279;50.858;4.392;2023-02-08T15:19:34;15.50;51.30
43679;DHT22;29279;50.858;4.392;2023-02-08T15:24:58;15.60;47.50
43679;DHT22;29279;50.858;4.392;2023-02-08T15:27:31;15.00;48.00
43679;DHT22;29279;50.858;4.392;2023-02-08T15:29:58;14.00;48.50
43679;DHT22;29279;50.858;4.392;2023-02-08T15:32:25;13.60;49.40
43679;DHT22;29279;50.858;4.392;2023-02-08T15:35:00;13.30;49.90
43679;DHT22;29279;50.858;4.392;2023-02-08T15:37:29;13.00;51.40
43679;DHT22;29279;50.858;4.392;2023-02-08T15:39:58;13.20;51.00
43679;DHT22;29279;50.858;4.392;2023-02-08T15:42:27;12.80;52.30
43679;DHT22;29279;50.858;4.392;2023-02-08T15:44:54;12.60;51.50
43679;DHT22;29279;50.858;4.392;2023-02-08T15:47:32;12.70;53.90
43679;DHT22;29279;50.858;4.392;2023-02-08T15:49:58;13.00;51.50
43679;DHT22;29279;50.858;4.392;2023-02-08T15:52:34;12.70;51.50
43679;DHT22;29279;50.858;4.392;2023-02-08T15:55:01;12.30;51.10
43679;DHT22;29279;50.858;4.392;2023-02-08T15:59:58;11.30;51.80
43679;DHT22;29279;50.858;4.392;2023-02-08T16:02:30;11.00;52.20
43679;DHT22;29279;50.858;4.392;2023-02-08T16:04:58;10.80;54.50
43679;DHT22;29279;50.858;4.392;2023-02-08T16:07:32;10.60;56.10
43679;DHT22;29279;50.858;4.392;2023-02-08T16:09:59;10.80;53.70
43679;DHT22;29279;50.858;4.392;2023-02-08T16:12:26;11.00;52.50
43679;DHT22;29279;50.858;4.392;2023-02-08T16:14:53;10.80;53.30
43679;DHT22;29279;50.858;4.392;2023-02-08T16:19:56;10.40;53.10
43679;DHT22;29279;50.858;4.392;2023-02-08T16:22:29;10.20;52.90
43679;DHT22;29279;50.858;4.392;2023-02-08T16:27:50;9.60;53.50
43679;DHT22;29279;50.858;4.392;2023-02-08T16:30:20;9.20;54.50
43679;DHT22;29279;50.858;4.392;2023-02-08T16:32:46;9.20;54.40
43679;DHT22;29279;50.858;4.392;2023-02-08T16:35:26;9.10;55.10
43679;DHT22;29279;50.858;4.392;2023-02-08T16:37:56;9.10;54.90
43679;DHT22;29279;50.858;4.392;2023-02-08T16:40:49;9.00;55.70
43679;DHT22;29279;50.858;4.392;2023-02-08T16:43:27;8.90;55.40
43679;DHT22;29279;50.858;4.392;2023-02-08T16:46:16;8.90;55.10
43679;DHT22;29279;50.858;4.392;2023-02-08T16:48:54;8.90;54.90
43679;DHT22;29279;50.858;4.392;2023-02-08T16:51:25;8.80;55.70
43679;DHT22;29279;50.858;4.392;2023-02-08T16:53:54;8.60;57.90
43679;DHT22;29279;50.858;4.392;2023-02-08T16:56:21;8.60;58.70
43679;DHT22;29279;50.858;4.392;2023-02-08T16:58:47;8.80;56.60
43679;DHT22;29279;50.858;4.392;2023-02-08T17:01:13;8.90;56.40
43679;DHT22;29279;50.858;4.392;2023-02-08T17:03:42;8.90;56.90
43679;DHT22;29279;50.858;4.392;2023-02-08T17:06:32;9.10;56.00
43679;DHT22;29279;50.858;4.392;2023-02-08T17:09:03;8.90;56.70
43679;DHT22;29279;50.858;4.392;2023-02-08T17:11:30;8.70;56.40
43679;DHT22;29279;50.858;4.392;2023-02-08T17:13:56;8.60;57.10
43679;DHT22;29279;50.858;4.392;2023-02-08T17:16:28;8.40;58.00
43679;DHT22;29279;50.858;4.392;2023-02-08T17:18:55;8.50;58.00
43679;DHT22;29279;50.858;4.392;2023-02-08T17:21:21;8.30;57.80
43679;DHT22;29279;50.858;4.392;2023-02-08T17:23:47;8.30;58.20
43679;DHT22;29279;50.858;4.392;2023-02-08T17:26:14;8.20;58.40
43679;DHT22;29279;50.858;4.392;2023-02-08T17:28:41;8.20;58.70
43679;DHT22;29279;50.858;4.392;2023-02-08T17:31:10;8.20;58.80
43679;DHT22;29279;50.858;4.392;2023-02-08T17:33:36;8.40;58.10
43679;DHT22;29279;50.858;4.392;2023-02-08T17:36:05;8.30;58.70
43679;DHT22;29279;50.858;4.392;2023-02-08T17:38:31;8.30;59.60
43679;DHT22;29279;50.858;4.392;2023-02-08T17:40:57;8.40;59.40
43679;DHT22;29279;50.858;4.392;2023-02-08T17:43:25;8.60;58.70
43679;DHT22;29279;50.858;4.392;2023-02-08T17:45:50;8.60;57.90
43679;DHT22;29279;50.858;4.392;2023-02-08T17:48:16;8.50;58.30
43679;DHT22;29279;50.858;4.392;2023-02-08T17:50:43;8.30;58.60
43679;DHT22;29279;50.858;4.392;2023-02-08T17:53:12;8.10;58.80
43679;DHT22;29279;50.858;4.392;2023-02-08T17:55:45;7.90;59.10
43679;DHT22;29279;50.858;4.392;2023-02-08T17:58:11;7.70;59.80
43679;DHT22;29279;50.858;4.392;2023-02-08T18:00:37;7.60;59.80
43679;DHT22;29279;50.858;4.392;2023-02-08T18:03:03;7.60;60.00
43679;DHT22;29279;50.858;4.392;2023-02-08T18:05:29;7.50;60.20
43679;DHT22;29279;50.858;4.392;2023-02-08T18:07:55;7.40;60.50
43679;DHT22;29279;50.858;4.392;2023-02-08T18:10:22;7.30;61.00
43679;DHT22;29279;50.858;4.392;2023-02-08T18:12:48;7.30;60.70
43679;DHT22;29279;50.858;4.392;2023-02-08T18:15:17;7.20;60.10
43679;DHT22;29279;50.858;4.392;2023-02-08T18:17:44;7.20;60.20
43679;DHT22;29279;50.858;4.392;2023-02-08T18:20:12;7.20;60.20
43679;DHT22;29279;50.858;4.392;2023-02-08T18:22:42;7.10;60.30
43679;DHT22;29279;50.858;4.392;2023-02-08T18:25:09;7.10;60.40
43679;DHT22;29279;50.858;4.392;2023-02-08T18:27:35;7.00;60.00
43679;DHT22;29279;50.858;4.392;2023-02-08T18:30:00;6.90;60.40
43679;DHT22;29279;50.858;4.392;2023-02-08T18:32:27;7.00;60.20
43679;DHT22;29279;50.858;4.392;2023-02-08T18:34:53;7.00;60.00